Virtual LH

Virtual LH. There's no better way to fly
Since 2013.



AIRPORT MAP

METAR AND TAF INFORMATION

METAR FOR EGLC
ADDS - METARS form results

(1013 UTC 21 January 2019)
Data provider http://aviationweather.gov/metar/data/
 
METAR text: EGLC 210950Z AUTO VRB03KT 6000 BKN030 04/01 Q1024
Conditions at: EGLC (LONDON CITY AIRP, GB) observed 0950 UTC 21 January 2019
Temperature: 4.0°C (39°F)
Dewpoint: 1.0°C (34°F) [RH = 81%]
Pressure (altimeter): 30.24 inches Hg (1024.0 mb)
Winds: variable direction winds at 3 MPH (3 knots; 1.5 m/s)
Visibility: 4 miles ( 6 km)
Ceiling: 3000 feet AGL
Clouds: broken clouds at 3000 feet AGL
Weather: no significant weather observed at this time

METAR text: EGLC 210920Z AUTO VRB03KT 5000 HZ OVC033 03/01 Q1024
Conditions at: EGLC (LONDON CITY AIRP, GB) observed 0920 UTC 21 January 2019
Temperature: 3.0°C (37°F)
Dewpoint: 1.0°C (34°F) [RH = 87%]
Pressure (altimeter): 30.24 inches Hg (1024.0 mb)
Winds: variable direction winds at 3 MPH (3 knots; 1.5 m/s)
Visibility: 3 miles ( 5 km)
Ceiling: 3300 feet AGL
Clouds: overcast cloud deck at 3300 feet AGL
Weather: HZ  (haze)

Forecast for: EGLC (LONDON CITY AIRP, GB)
Text: TAF EGLC 210755Z 2109/2118 VRB05KT 6000 SCT012
Forecast period: 0900 to 1800 UTC 21 January 2019
Forecast type: FROM: standard forecast or significant change
Winds: variable direction winds at 6 MPH (5 knots; 2.6 m/s)
Visibility: 4 miles (6 km)
Ceiling: at least 12,000 feet AGL
Clouds: scattered clouds at 1200 feet AGL
Weather: no significant weather forecast for this period
Text: BECMG 2109/2112 9999
Forecast period: 0900 to 1800 UTC 21 January 2019
Forecast type: BECOMING: Conditions expected to become as follows by 1200 UTC 21 January 2019
Winds: variable direction winds at 6 MPH (5 knots; 2.6 m/s)
Visibility: 6 or more miles 10+ km)
Ceiling: at least 12,000 feet AGL
Clouds: scattered clouds at 1200 feet AGL
Weather: no significant weather forecast for this period

RUNWAY INFORMATION

Runway 10 Runway length 4948 ft Runway width 98 ft
Runway elevation 16 ft Runway displaced threshold 358 ft Runway heading 93
Runway 28 Runway length 4948 ft Runway width 98 ft
Runway elevation 19 ft Runway displaced threshold 211 ft Runway heading 273

AIRPORT FREQUENCIES

Type APP Name APP Frequency 132.7 MHZ
Type ATIS Name ATIS Frequency 136.35 MHZ
Type GND Name GND Frequency 121.825 MHZ
Type TWR Name TWR Frequency 118.075 MHZ

AIRPORT NEAR NAVIGATION AIDS

Type NDB Name City Frequency 322 KHZ